createdAt,value
2022-10-13T00:00:01.889Z,20.20
2022-10-13T00:01:35.930Z,18.90
2022-10-13T00:03:07.877Z,17.50
2022-10-13T00:04:40.689Z,16.43
2022-10-13T00:06:14.253Z,18.10
2022-10-13T00:07:47.007Z,16.50
2022-10-13T00:09:20.570Z,19.23
2022-10-13T00:10:53.271Z,19.13
2022-10-13T00:12:26.032Z,15.35
2022-10-13T00:14:00.564Z,18.37
2022-10-13T00:15:32.390Z,18.17
2022-10-13T00:17:06.420Z,23.60
2022-10-13T00:18:39.598Z,23.63
2022-10-13T00:20:12.392Z,24.73
2022-10-13T00:21:45.109Z,24.67
2022-10-13T00:23:18.414Z,20.10
2022-10-13T00:24:51.210Z,20.60
2022-10-13T00:26:26.711Z,19.67
2022-10-13T00:27:59.400Z,19.70
2022-10-13T00:29:32.083Z,17.67
2022-10-13T00:31:04.938Z,22.42
2022-10-13T00:32:39.021Z,19.80
2022-10-13T00:34:11.723Z,19.13
2022-10-13T00:35:46.457Z,20.02
2022-10-13T00:37:19.234Z,19.80
2022-10-13T00:38:52.166Z,19.23
2022-10-13T00:40:25.210Z,18.90
2022-10-13T00:41:57.251Z,24.40
2022-10-13T00:43:49.920Z,23.60
2022-10-13T00:45:24.498Z,22.27
2022-10-13T00:46:57.209Z,20.17
2022-10-13T00:48:31.977Z,21.10
2022-10-13T00:50:07.252Z,23.38
2022-10-13T00:51:42.801Z,23.95
2022-10-13T00:53:17.408Z,20.10
2022-10-13T00:54:49.825Z,20.17
2022-10-13T00:56:24.467Z,18.40
2022-10-13T00:58:04.904Z,24.33
2022-10-13T00:59:39.600Z,23.55
2022-10-13T01:01:12.457Z,26.93
2022-10-13T01:02:45.171Z,18.15
2022-10-13T01:04:22.501Z,16.55
2022-10-13T01:05:58.832Z,17.97
2022-10-13T01:07:32.423Z,18.95
2022-10-13T01:09:05.171Z,19.77
2022-10-13T01:10:49.249Z,17.67
2022-10-13T01:12:34.774Z,16.10
2022-10-13T01:14:22.749Z,18.23
2022-10-13T01:16:01.457Z,20.70
2022-10-13T01:17:44.382Z,17.50
2022-10-13T01:19:34.511Z,20.25
2022-10-13T01:21:20.175Z,19.40
2022-10-13T01:23:09.368Z,16.95
2022-10-13T01:24:47.658Z,18.87
2022-10-13T01:26:47.070Z,19.95
2022-10-13T01:28:34.147Z,20.92
2022-10-13T01:30:18.908Z,21.10
2022-10-13T01:31:59.065Z,19.50
2022-10-13T01:33:41.832Z,17.73
2022-10-13T01:35:19.328Z,18.10
2022-10-13T01:36:59.686Z,22.70
2022-10-13T01:38:38.186Z,20.80
2022-10-13T01:40:13.994Z,22.17
2022-10-13T01:41:50.607Z,33.20
2022-10-13T01:43:27.026Z,21.75
2022-10-13T01:45:01.649Z,22.67
2022-10-13T01:46:38.625Z,23.25
2022-10-13T01:48:12.608Z,19.27
2022-10-13T01:49:45.802Z,19.13
2022-10-13T01:51:21.892Z,18.75
2022-10-13T01:52:55.529Z,19.67
2022-10-13T01:54:28.243Z,18.33
2022-10-13T01:56:01.653Z,19.30
2022-10-13T01:57:35.622Z,18.10
2022-10-13T01:59:13.366Z,16.45
2022-10-13T02:00:54.017Z,16.65
2022-10-13T02:02:33.124Z,16.75
2022-10-13T02:04:15.313Z,16.52
2022-10-13T02:05:52.522Z,18.83
2022-10-13T02:07:29.016Z,18.58
2022-10-13T02:09:06.968Z,17.70
2022-10-13T02:10:47.017Z,16.53
2022-10-13T02:12:26.438Z,15.90
2022-10-13T02:14:08.429Z,17.23
2022-10-13T02:15:45.599Z,18.13
2022-10-13T02:17:18.849Z,16.88
2022-10-13T02:18:54.126Z,16.33
2022-10-13T02:20:26.909Z,19.00
2022-10-13T02:22:00.142Z,21.20
2022-10-13T02:23:32.003Z,21.40
2022-10-13T02:25:05.335Z,22.27
2022-10-13T02:26:39.075Z,19.83
2022-10-13T02:28:13.770Z,18.33
2022-10-13T02:29:54.536Z,18.02
2022-10-13T02:31:27.228Z,20.65
2022-10-13T02:32:59.362Z,21.97
2022-10-13T02:34:33.463Z,23.23
2022-10-13T02:36:06.348Z,23.67
2022-10-13T02:37:39.058Z,22.58
2022-10-13T02:39:12.683Z,19.83
2022-10-13T02:40:45.373Z,21.80
2022-10-13T02:42:17.628Z,25.23
2022-10-13T02:43:50.576Z,20.75
2022-10-13T02:45:23.603Z,20.20
2022-10-13T02:46:56.307Z,19.10
2022-10-13T02:48:28.032Z,22.17
2022-10-13T02:50:02.285Z,18.60
2022-10-13T02:51:39.697Z,23.70
2022-10-13T02:53:12.970Z,25.48
2022-10-13T02:54:45.688Z,25.40
2022-10-13T02:56:19.168Z,25.17
2022-10-13T02:57:51.889Z,24.45
2022-10-13T02:59:24.577Z,21.58
2022-10-13T03:01:06.755Z,25.95
2022-10-13T03:02:39.493Z,29.23
2022-10-13T03:04:12.830Z,33.15
2022-10-13T03:05:46.904Z,26.42
2022-10-13T03:07:19.745Z,29.10
2022-10-13T03:08:51.593Z,21.77
2022-10-13T03:10:24.291Z,22.20
2022-10-13T03:11:57.049Z,21.50
2022-10-13T03:13:29.962Z,21.83
2022-10-13T03:15:02.684Z,25.80
2022-10-13T03:16:35.431Z,23.85
2022-10-13T03:18:08.220Z,24.67
2022-10-13T03:19:40.935Z,22.70
2022-10-13T03:21:14.034Z,24.58
2022-10-13T03:22:49.785Z,28.13
2022-10-13T03:24:21.901Z,29.63
2022-10-13T03:25:55.345Z,23.70
2022-10-13T03:27:27.513Z,27.42
2022-10-13T03:29:00.207Z,26.00
2022-10-13T03:30:32.917Z,27.85
2022-10-13T03:32:05.253Z,28.00
2022-10-13T03:33:38.025Z,27.08
2022-10-13T03:35:10.704Z,24.05
2022-10-13T03:36:44.768Z,23.02
2022-10-13T03:38:16.535Z,22.85
2022-10-13T03:39:49.329Z,24.08
2022-10-13T03:41:21.641Z,25.90
2022-10-13T03:42:54.359Z,23.88
2022-10-13T03:44:27.084Z,23.63
2022-10-13T03:46:00.691Z,22.83
2022-10-13T03:47:35.785Z,26.80
2022-10-13T03:49:08.538Z,25.00
2022-10-13T03:50:41.601Z,29.52
2022-10-13T03:52:15.680Z,26.23
2022-10-13T03:53:49.540Z,26.88
2022-10-13T03:55:22.245Z,24.52
2022-10-13T03:56:55.039Z,25.17
2022-10-13T03:58:29.223Z,28.20
2022-10-13T04:00:03.700Z,22.90
2022-10-13T04:01:36.451Z,23.48
2022-10-13T04:03:09.291Z,27.35
2022-10-13T04:04:41.991Z,25.40
2022-10-13T04:06:14.750Z,24.95
2022-10-13T04:07:48.778Z,22.52
2022-10-13T04:09:21.460Z,25.38
2022-10-13T04:10:59.508Z,26.27
2022-10-13T04:12:32.268Z,27.38
2022-10-13T04:14:05.218Z,29.13
2022-10-13T04:15:37.537Z,26.30
2022-10-13T04:17:10.253Z,20.95
2022-10-13T04:18:44.892Z,27.27
2022-10-13T04:20:18.062Z,23.95
2022-10-13T04:21:50.783Z,28.95
2022-10-13T04:23:24.876Z,28.80
2022-10-13T04:24:57.715Z,27.52
2022-10-13T04:26:32.498Z,26.15
2022-10-13T04:28:05.724Z,28.45
2022-10-13T04:29:38.476Z,26.23
2022-10-13T04:31:10.260Z,23.85
2022-10-13T04:32:42.980Z,26.25
2022-10-13T04:34:15.932Z,29.00
2022-10-13T04:35:47.663Z,27.30
2022-10-13T04:37:20.364Z,32.67
2022-10-13T04:38:54.925Z,29.15
2022-10-13T04:40:28.322Z,35.03
2022-10-13T04:42:01.021Z,28.67
2022-10-13T04:43:33.360Z,34.92
2022-10-13T04:45:07.051Z,30.23
2022-10-13T04:46:39.775Z,35.28
2022-10-13T04:48:12.474Z,34.10
2022-10-13T04:49:45.192Z,37.80
2022-10-13T04:51:19.718Z,33.30
2022-10-13T04:52:52.676Z,31.50
2022-10-13T04:54:26.751Z,33.90
2022-10-13T04:56:02.259Z,32.90
2022-10-13T04:57:34.953Z,32.33
2022-10-13T04:59:07.664Z,35.03
2022-10-13T05:00:40.467Z,29.77
2022-10-13T05:02:13.294Z,32.03
2022-10-13T05:03:45.327Z,34.15
2022-10-13T05:05:18.246Z,31.10
2022-10-13T05:07:16.549Z,30.90
2022-10-13T05:08:43.985Z,31.70
2022-10-13T05:10:18.213Z,34.03
2022-10-13T05:11:50.912Z,30.80
2022-10-13T05:13:22.931Z,31.27
2022-10-13T05:14:55.848Z,29.75
2022-10-13T05:16:29.276Z,31.13
2022-10-13T05:18:01.027Z,32.88
2022-10-13T05:19:33.833Z,34.63
2022-10-13T05:21:10.389Z,34.47
2022-10-13T05:22:43.217Z,34.55
2022-10-13T05:24:16.303Z,32.90
2022-10-13T05:25:50.352Z,33.88
2022-10-13T05:27:23.291Z,36.10
2022-10-13T05:28:56.406Z,37.13
2022-10-13T05:30:29.140Z,30.27
2022-10-13T05:32:01.884Z,34.35
2022-10-13T05:33:34.563Z,35.60
2022-10-13T05:35:07.892Z,27.65
2022-10-13T05:36:40.744Z,25.27
2022-10-13T05:38:13.473Z,24.17
2022-10-13T05:39:48.883Z,25.77
2022-10-13T05:41:25.256Z,28.30
2022-10-13T05:42:58.100Z,25.52
2022-10-13T05:44:30.797Z,24.60
2022-10-13T05:46:02.598Z,28.10
2022-10-13T05:47:35.308Z,30.13
2022-10-13T05:49:08.022Z,25.27
2022-10-13T05:50:41.249Z,25.83
2022-10-13T05:52:14.087Z,22.73
2022-10-13T05:53:53.049Z,22.75
2022-10-13T05:55:29.778Z,20.23
2022-10-13T05:57:09.223Z,21.65
2022-10-13T05:58:45.604Z,22.52
2022-10-13T06:00:20.432Z,23.45
2022-10-13T06:01:53.950Z,23.42
2022-10-13T06:03:28.612Z,21.52
2022-10-13T06:05:02.649Z,18.90
2022-10-13T06:06:34.457Z,20.17
2022-10-13T06:08:07.237Z,22.20
2022-10-13T06:09:42.472Z,22.10
2022-10-13T06:11:15.169Z,20.35
2022-10-13T06:12:49.224Z,22.45
2022-10-13T06:14:21.909Z,21.98
2022-10-13T06:15:54.684Z,23.10
2022-10-13T06:17:27.455Z,22.65
2022-10-13T06:19:00.217Z,19.02
2022-10-13T06:20:32.915Z,24.48
2022-10-13T06:22:05.635Z,25.20
2022-10-13T06:23:38.336Z,20.92
2022-10-13T06:25:11.233Z,25.42
2022-10-13T06:26:44.148Z,27.50
2022-10-13T06:28:19.635Z,25.73
2022-10-13T06:29:51.451Z,26.75
2022-10-13T06:31:24.164Z,23.80
2022-10-13T06:32:57.221Z,25.45
2022-10-13T06:34:29.925Z,22.60
2022-10-13T06:36:04.179Z,23.23
2022-10-13T06:37:36.916Z,22.83
2022-10-13T06:39:10.254Z,24.83
2022-10-13T06:40:43.280Z,27.80
2022-10-13T06:42:16.254Z,30.85
2022-10-13T06:43:50.789Z,27.67
2022-10-13T06:45:23.867Z,29.27
2022-10-13T06:46:56.780Z,24.92
2022-10-13T06:48:31.094Z,27.40
2022-10-13T06:50:03.946Z,29.52
2022-10-13T06:51:36.720Z,26.35
2022-10-13T06:53:09.575Z,24.73
2022-10-13T06:54:42.588Z,26.48
2022-10-13T06:56:15.538Z,31.17
2022-10-13T06:57:48.537Z,29.20
2022-10-13T06:59:23.028Z,25.08
2022-10-13T07:00:56.578Z,23.35
2022-10-13T07:02:29.320Z,26.70
2022-10-13T07:04:02.177Z,24.58
2022-10-13T07:05:35.010Z,25.67
2022-10-13T07:07:07.770Z,28.67
2022-10-13T07:08:40.721Z,31.48
2022-10-13T07:10:13.596Z,31.30
2022-10-13T07:11:46.385Z,29.60
2022-10-13T07:13:19.217Z,29.90
2022-10-13T07:14:53.439Z,28.23
2022-10-13T07:16:26.343Z,26.02
2022-10-13T07:17:59.289Z,27.50
2022-10-13T07:19:32.212Z,30.80
2022-10-13T07:21:06.534Z,29.40
2022-10-13T07:22:39.328Z,29.70
2022-10-13T07:24:13.006Z,25.73
2022-10-13T07:25:45.684Z,24.73
2022-10-13T07:27:18.610Z,28.35
2022-10-13T07:28:51.787Z,31.85
2022-10-13T07:30:26.020Z,28.23
2022-10-13T07:31:58.773Z,28.27
2022-10-13T07:33:30.585Z,25.30
2022-10-13T07:35:03.660Z,27.63
2022-10-13T07:36:38.280Z,24.77
2022-10-13T07:38:11.008Z,25.73
2022-10-13T07:39:43.728Z,28.88
2022-10-13T07:41:16.980Z,28.83
2022-10-13T07:42:49.957Z,32.13
2022-10-13T07:44:22.723Z,29.57
2022-10-13T07:45:59.433Z,31.90
2022-10-13T07:47:32.279Z,30.63
2022-10-13T07:49:05.100Z,24.23
2022-10-13T07:50:37.925Z,28.67
2022-10-13T07:52:10.822Z,29.50
2022-10-13T07:53:43.866Z,29.67
2022-10-13T07:55:16.732Z,25.30
2022-10-13T07:56:52.427Z,28.37
2022-10-13T07:58:25.152Z,25.67
2022-10-13T07:59:57.871Z,30.15
2022-10-13T08:01:32.330Z,30.37
2022-10-13T08:03:05.281Z,33.20
2022-10-13T08:04:38.213Z,27.67
2022-10-13T08:06:11.513Z,29.43
2022-10-13T08:07:44.294Z,29.70
2022-10-13T08:09:17.009Z,31.95
2022-10-13T08:10:49.986Z,29.70
2022-10-13T08:12:22.894Z,25.97
2022-10-13T08:14:00.541Z,23.97
2022-10-13T08:15:33.371Z,26.27
2022-10-13T08:17:07.438Z,29.67
2022-10-13T08:18:40.132Z,27.67
2022-10-13T08:20:13.809Z,30.80
2022-10-13T08:22:02.267Z,34.73
2022-10-13T08:23:34.961Z,38.67
2022-10-13T08:25:08.603Z,34.95
2022-10-13T08:26:41.636Z,38.30
2022-10-13T08:28:19.048Z,34.47
2022-10-13T08:29:52.725Z,40.03
2022-10-13T08:31:25.909Z,38.57
2022-10-13T08:33:00.144Z,38.50
2022-10-13T08:34:33.959Z,33.67
2022-10-13T08:36:07.192Z,36.10
2022-10-13T08:37:39.890Z,34.77
2022-10-13T08:39:13.866Z,33.03
2022-10-13T08:40:48.221Z,36.73
2022-10-13T08:42:22.809Z,34.57
2022-10-13T08:44:41.008Z,34.50
2022-10-13T08:45:52.797Z,35.97
2022-10-13T08:47:35.311Z,30.77
2022-10-13T08:49:09.460Z,28.00
2022-10-13T08:50:45.169Z,31.80
2022-10-13T08:52:21.925Z,29.37
2022-10-13T08:53:54.999Z,30.53
2022-10-13T08:55:32.866Z,29.23
2022-10-13T08:57:06.563Z,34.47
2022-10-13T08:58:42.905Z,28.83
2022-10-13T09:00:16.001Z,33.00
2022-10-13T09:01:51.872Z,31.70
2022-10-13T09:03:26.784Z,35.40
2022-10-13T09:05:03.185Z,29.30
2022-10-13T09:06:40.512Z,33.60
2022-10-13T09:08:20.077Z,32.40
2022-10-13T09:09:53.977Z,31.67
2022-10-13T09:11:30.670Z,29.47
2022-10-13T09:13:03.425Z,33.30
2022-10-13T09:14:38.297Z,34.43
2022-10-13T09:16:11.192Z,38.00
2022-10-13T09:17:43.927Z,37.27
2022-10-13T09:19:23.388Z,36.50
2022-10-13T09:21:18.624Z,35.17
2022-10-13T09:23:04.049Z,32.80
2022-10-13T09:24:36.781Z,29.70
2022-10-13T09:26:17.348Z,36.70
2022-10-13T09:27:51.657Z,35.23
2022-10-13T09:29:27.106Z,36.50
2022-10-13T09:31:04.425Z,32.10
2022-10-13T09:32:37.286Z,33.10
2022-10-13T09:34:15.949Z,34.43
2022-10-13T09:35:50.160Z,36.40
2022-10-13T09:37:25.801Z,38.57
2022-10-13T09:39:12.303Z,37.27
2022-10-13T09:40:56.808Z,31.50
2022-10-13T09:42:31.681Z,32.20
2022-10-13T09:44:17.191Z,39.63
2022-10-13T09:45:50.109Z,32.33
2022-10-13T09:47:23.125Z,32.30
2022-10-13T09:48:58.306Z,34.07
2022-10-13T09:50:32.556Z,31.33
2022-10-13T09:52:08.550Z,31.43
2022-10-13T09:53:49.205Z,39.47
2022-10-13T09:55:32.801Z,32.70
2022-10-13T09:57:12.573Z,36.50
2022-10-13T09:58:51.558Z,41.77
2022-10-13T10:00:26.712Z,35.23
2022-10-13T10:02:00.772Z,35.57
2022-10-13T10:03:35.768Z,37.00
2022-10-13T10:05:19.346Z,40.50
2022-10-13T10:06:52.227Z,40.30
2022-10-13T10:08:33.889Z,42.30
2022-10-13T10:10:27.833Z,41.57
2022-10-13T10:12:02.364Z,53.50
2022-10-13T10:13:35.069Z,50.63
2022-10-13T10:15:21.136Z,50.70
2022-10-13T10:17:02.791Z,54.50
2022-10-13T10:18:39.926Z,50.17
2022-10-13T10:20:29.838Z,51.43
2022-10-13T10:22:10.961Z,51.80
2022-10-13T10:23:49.165Z,42.63
2022-10-13T10:25:33.002Z,51.03
2022-10-13T10:27:11.565Z,47.97
2022-10-13T10:29:20.166Z,50.70
2022-10-13T10:31:02.731Z,50.70
2022-10-13T10:32:44.745Z,56.80
2022-10-13T10:34:34.404Z,64.50
2022-10-13T10:36:16.873Z,55.67
2022-10-13T10:38:02.040Z,60.07
2022-10-13T10:39:42.916Z,53.13
2022-10-13T10:41:27.453Z,56.27
2022-10-13T10:43:32.073Z,48.43
2022-10-13T10:45:13.288Z,39.53
2022-10-13T10:46:48.994Z,38.97
2022-10-13T10:48:25.144Z,39.43
2022-10-13T10:50:03.179Z,35.33
2022-10-13T10:51:38.938Z,31.23
2022-10-13T10:53:18.877Z,31.63
2022-10-13T10:54:56.966Z,35.57
2022-10-13T10:56:36.931Z,34.70
2022-10-13T10:58:21.516Z,28.50
2022-10-13T11:00:01.738Z,27.80
2022-10-13T11:01:41.676Z,23.87
2022-10-13T11:03:23.555Z,24.90
2022-10-13T11:05:05.410Z,26.23
2022-10-13T11:06:39.614Z,24.00
2022-10-13T11:08:27.533Z,22.33
2022-10-13T11:10:17.234Z,23.87
2022-10-13T11:11:51.289Z,25.10
2022-10-13T11:13:23.196Z,27.07
2022-10-13T11:15:05.677Z,19.97
2022-10-13T11:16:42.376Z,19.93
2022-10-13T11:18:52.503Z,18.73
2022-10-13T11:20:50.065Z,20.10
2022-10-13T11:22:25.170Z,19.33
2022-10-13T11:24:01.881Z,19.27
2022-10-13T11:25:40.439Z,19.53
2022-10-13T11:27:45.050Z,22.60
2022-10-13T11:29:20.744Z,26.23
2022-10-13T11:30:55.262Z,18.67
2022-10-13T11:32:55.469Z,21.67
2022-10-13T11:34:30.582Z,22.50
2022-10-13T11:36:32.599Z,21.10
2022-10-13T11:38:24.686Z,22.27
2022-10-13T11:40:17.730Z,20.50
2022-10-13T11:42:10.282Z,21.23
2022-10-13T11:43:52.173Z,20.10
2022-10-13T11:45:40.539Z,21.17
2022-10-13T11:47:27.768Z,25.13
2022-10-13T11:49:25.823Z,27.63
2022-10-13T11:51:13.951Z,47.17
2022-10-13T11:53:02.188Z,24.20
2022-10-13T11:54:39.063Z,22.83
2022-10-13T11:56:21.291Z,19.40
2022-10-13T11:58:09.100Z,24.77
2022-10-13T11:59:47.677Z,20.57
2022-10-13T12:01:20.403Z,19.17
2022-10-13T12:02:54.260Z,25.80
2022-10-13T12:04:28.946Z,24.83
2022-10-13T12:06:05.403Z,23.67
2022-10-13T12:07:41.886Z,21.70
2022-10-13T12:09:19.375Z,23.27
2022-10-13T12:10:58.161Z,24.27
2022-10-13T12:12:31.797Z,21.57
2022-10-13T12:14:09.093Z,25.63
2022-10-13T12:15:45.285Z,24.60
2022-10-13T12:17:24.177Z,26.90
2022-10-13T12:19:08.446Z,26.57
2022-10-13T12:20:41.253Z,27.27
2022-10-13T12:22:14.971Z,25.70
2022-10-13T12:23:48.509Z,26.20
2022-10-13T12:25:23.028Z,25.07
2022-10-13T12:26:56.928Z,23.83
2022-10-13T12:28:32.581Z,24.87
2022-10-13T12:30:20.406Z,28.00
2022-10-13T12:31:55.050Z,25.27
2022-10-13T12:33:30.932Z,26.33
2022-10-13T12:35:19.884Z,23.13
2022-10-13T12:36:59.803Z,26.87
2022-10-13T12:38:32.636Z,23.87
2022-10-13T12:40:06.758Z,24.27
2022-10-13T12:41:43.495Z,27.57
2022-10-13T12:43:20.392Z,25.43
2022-10-13T12:44:53.522Z,22.43
2022-10-13T12:46:40.069Z,23.77
2022-10-13T12:48:33.879Z,21.83
2022-10-13T12:50:38.362Z,26.40
2022-10-13T12:52:14.751Z,26.47
2022-10-13T12:53:48.825Z,24.60
2022-10-13T12:55:23.044Z,27.33
2022-10-13T12:56:58.899Z,24.67
2022-10-13T12:58:33.535Z,23.53
2022-10-13T13:00:06.933Z,29.07
2022-10-13T13:01:39.812Z,24.73
2022-10-13T13:03:24.036Z,26.50
2022-10-13T13:04:58.262Z,26.97
2022-10-13T13:06:37.104Z,30.00
2022-10-13T13:08:24.724Z,26.43
2022-10-13T13:10:15.889Z,28.63
2022-10-13T13:11:49.360Z,28.07
2022-10-13T13:13:24.062Z,28.07
2022-10-13T13:14:57.317Z,31.17
2022-10-13T13:16:30.051Z,25.00
2022-10-13T13:18:35.647Z,22.90
2022-10-13T13:20:23.661Z,26.87
2022-10-13T13:21:56.372Z,27.03
2022-10-13T13:23:34.128Z,23.87
2022-10-13T13:25:07.181Z,28.00
2022-10-13T13:26:39.896Z,27.53
2022-10-13T13:28:14.724Z,28.33
2022-10-13T13:29:47.552Z,25.03
2022-10-13T13:31:22.229Z,26.27
2022-10-13T13:32:54.974Z,25.33
2022-10-13T13:34:27.976Z,26.07
2022-10-13T13:36:02.065Z,24.57
2022-10-13T13:37:38.295Z,28.07
2022-10-13T13:39:16.270Z,23.93
2022-10-13T13:40:49.011Z,25.63
2022-10-13T13:42:21.794Z,22.47
2022-10-13T13:43:54.875Z,23.73
2022-10-13T13:45:27.711Z,23.27
2022-10-13T13:47:00.431Z,25.83
2022-10-13T13:48:33.212Z,24.90
2022-10-13T13:50:14.796Z,25.57
2022-10-13T13:51:48.856Z,24.93
2022-10-13T13:53:21.561Z,25.10
2022-10-13T13:54:56.076Z,23.40
2022-10-13T13:56:30.408Z,26.77
2022-10-13T13:58:03.308Z,23.60
2022-10-13T13:59:36.283Z,22.97
2022-10-13T14:01:09.098Z,26.47
2022-10-13T14:02:42.713Z,26.13
2022-10-13T14:04:15.437Z,25.40
2022-10-13T14:05:48.179Z,25.43
2022-10-13T14:07:22.593Z,24.90
2022-10-13T14:08:55.718Z,25.33
2022-10-13T14:10:29.211Z,25.50
2022-10-13T14:12:02.068Z,26.40
2022-10-13T14:13:35.028Z,25.17
2022-10-13T14:15:08.930Z,27.13
2022-10-13T14:16:42.376Z,27.43
2022-10-13T14:18:16.362Z,29.87
2022-10-13T14:19:49.113Z,24.60
2022-10-13T14:21:21.876Z,25.70
2022-10-13T14:22:56.991Z,24.53
2022-10-13T14:24:29.704Z,27.00
2022-10-13T14:26:06.872Z,20.93
2022-10-13T14:27:39.617Z,20.47
2022-10-13T14:29:13.365Z,22.13
2022-10-13T14:30:46.175Z,20.73
2022-10-13T14:32:19.362Z,21.07
2022-10-13T14:33:54.428Z,23.13
2022-10-13T14:35:27.351Z,21.93
2022-10-13T14:37:00.101Z,21.03
2022-10-13T14:38:39.043Z,24.43
2022-10-13T14:40:12.006Z,23.00
2022-10-13T14:41:44.773Z,21.80
2022-10-13T14:43:17.480Z,25.53
2022-10-13T14:44:50.261Z,25.10
2022-10-13T14:46:23.248Z,23.83
2022-10-13T14:47:55.964Z,23.63
2022-10-13T14:49:28.806Z,26.80
2022-10-13T14:51:05.028Z,24.13
2022-10-13T14:52:37.833Z,25.73
2022-10-13T14:54:12.094Z,23.50
2022-10-13T14:55:46.107Z,28.50
2022-10-13T14:57:19.357Z,25.30
2022-10-13T14:58:53.996Z,23.93
2022-10-13T15:00:26.832Z,24.63
2022-10-13T15:02:00.000Z,25.83
2022-10-13T15:03:33.308Z,28.57
2022-10-13T15:05:07.109Z,27.07
2022-10-13T15:06:40.398Z,25.27
2022-10-13T15:08:13.145Z,30.37
2022-10-13T15:09:53.108Z,28.00
2022-10-13T15:11:33.664Z,29.83
2022-10-13T15:13:06.441Z,29.17
2022-10-13T15:14:39.171Z,28.80
2022-10-13T15:16:16.365Z,31.77
2022-10-13T15:17:49.078Z,26.23
2022-10-13T15:19:21.829Z,28.63
2022-10-13T15:20:54.945Z,33.00
2022-10-13T15:22:27.673Z,28.67
2022-10-13T15:24:01.344Z,34.37
2022-10-13T15:25:35.394Z,31.03
2022-10-13T15:27:08.234Z,33.47
2022-10-13T15:28:42.827Z,32.50
2022-10-13T15:30:15.753Z,35.07
2022-10-13T15:31:48.495Z,30.63
2022-10-13T15:33:21.250Z,34.77
2022-10-13T15:34:54.304Z,39.00
2022-10-13T15:36:27.186Z,38.50
2022-10-13T15:38:00.007Z,35.67
2022-10-13T15:39:32.751Z,36.93
2022-10-13T15:41:07.994Z,43.87
2022-10-13T15:42:40.749Z,40.37
2022-10-13T15:44:13.545Z,36.03
2022-10-13T15:45:54.756Z,39.40
2022-10-13T15:47:27.503Z,39.33
2022-10-13T15:49:00.216Z,44.00
2022-10-13T15:50:33.203Z,43.17
2022-10-13T15:52:06.139Z,40.53
2022-10-13T15:53:38.946Z,39.90
2022-10-13T15:55:13.200Z,38.03
2022-10-13T15:56:47.260Z,40.37
2022-10-13T15:58:20.257Z,39.17
2022-10-13T15:59:52.990Z,40.00
2022-10-13T16:01:25.731Z,43.60
2022-10-13T16:02:57.613Z,43.70
2022-10-13T16:04:34.838Z,42.60
2022-10-13T16:06:11.869Z,40.87
2022-10-13T16:07:44.951Z,42.77
2022-10-13T16:09:17.665Z,49.23
2022-10-13T16:10:50.388Z,42.83
2022-10-13T16:12:24.610Z,42.80
2022-10-13T16:13:57.795Z,41.93
2022-10-13T16:15:31.529Z,42.73
2022-10-13T16:17:04.626Z,41.03
2022-10-13T16:18:39.028Z,40.97
2022-10-13T16:20:13.035Z,44.40
2022-10-13T16:21:46.827Z,40.63
2022-10-13T16:23:19.574Z,41.10
2022-10-13T16:24:52.369Z,45.47
2022-10-13T16:26:25.130Z,38.77
2022-10-13T16:28:00.680Z,42.80
2022-10-13T16:29:33.517Z,42.13
2022-10-13T16:31:07.867Z,41.40
2022-10-13T16:32:40.828Z,41.53
2022-10-13T16:34:13.574Z,43.03
2022-10-13T16:35:46.302Z,43.40
2022-10-13T16:37:19.553Z,40.17
2022-10-13T16:38:54.567Z,42.20
2022-10-13T16:40:27.380Z,39.60
2022-10-13T16:42:00.208Z,39.27
2022-10-13T16:43:35.062Z,45.73
2022-10-13T16:45:08.807Z,41.70
2022-10-13T16:46:42.249Z,40.33
2022-10-13T16:48:14.980Z,37.80
2022-10-13T16:49:47.973Z,42.80
2022-10-13T16:51:22.420Z,42.03
2022-10-13T16:52:55.137Z,41.77
2022-10-13T16:54:27.869Z,44.77
2022-10-13T16:56:00.590Z,42.67
2022-10-13T16:57:33.521Z,41.63
2022-10-13T16:59:08.127Z,39.40
2022-10-13T17:00:41.350Z,41.20
2022-10-13T17:02:15.451Z,39.83
2022-10-13T17:03:50.033Z,37.60
2022-10-13T17:05:22.862Z,39.83
2022-10-13T17:06:55.686Z,40.30
2022-10-13T17:08:28.993Z,40.77
2022-10-13T17:10:03.015Z,38.87
2022-10-13T17:11:37.189Z,39.40
2022-10-13T17:13:09.935Z,46.13
2022-10-13T17:14:44.046Z,44.47
2022-10-13T17:16:17.054Z,41.57
2022-10-13T17:17:49.729Z,43.90
2022-10-13T17:19:22.466Z,42.20
2022-10-13T17:20:56.417Z,42.47
2022-10-13T17:22:29.136Z,42.10
2022-10-13T17:24:01.894Z,44.57
2022-10-13T17:25:35.285Z,41.10
2022-10-13T17:27:08.008Z,44.03
2022-10-13T17:28:42.016Z,38.27
2022-10-13T17:30:16.239Z,39.43
2022-10-13T17:31:48.928Z,44.57
2022-10-13T17:33:21.662Z,37.20
2022-10-13T17:34:54.512Z,40.77
2022-10-13T17:36:29.101Z,36.27
2022-10-13T17:38:01.846Z,34.83
2022-10-13T17:39:34.751Z,37.13
2022-10-13T17:41:09.739Z,35.13
2022-10-13T17:42:42.474Z,36.63
2022-10-13T17:44:20.001Z,34.90
2022-10-13T17:45:54.060Z,34.33
2022-10-13T17:47:26.777Z,37.27
2022-10-13T17:49:00.474Z,36.27
2022-10-13T17:50:35.548Z,34.80
2022-10-13T17:52:08.264Z,32.03
2022-10-13T17:53:42.430Z,30.20
2022-10-13T17:55:15.373Z,33.60
2022-10-13T17:56:48.424Z,32.03
2022-10-13T17:58:21.218Z,34.23
2022-10-13T17:59:53.965Z,31.40
2022-10-13T18:01:29.647Z,34.17
2022-10-13T18:03:02.405Z,28.83
2022-10-13T18:04:35.156Z,29.27
2022-10-13T18:06:08.520Z,28.67
2022-10-13T18:07:41.315Z,30.53
2022-10-13T18:09:16.194Z,32.67
2022-10-13T18:11:08.115Z,30.23
2022-10-13T18:12:41.421Z,28.93
2022-10-13T18:14:14.576Z,28.53
2022-10-13T18:15:47.263Z,27.63
2022-10-13T18:17:21.396Z,26.77
2022-10-13T18:18:55.293Z,26.33
2022-10-13T18:20:28.581Z,24.67
2022-10-13T18:22:01.306Z,26.13
2022-10-13T18:23:35.537Z,26.20
2022-10-13T18:25:08.979Z,28.10
2022-10-13T18:26:41.965Z,28.03
2022-10-13T18:28:14.759Z,25.70
2022-10-13T18:29:47.499Z,27.30
2022-10-13T18:31:22.087Z,28.37
2022-10-13T18:32:56.115Z,28.10
2022-10-13T18:34:28.922Z,30.37
2022-10-13T18:36:01.817Z,29.33
2022-10-13T18:37:35.072Z,30.47
2022-10-13T18:39:11.412Z,30.40
2022-10-13T18:40:44.150Z,27.13
2022-10-13T18:42:16.892Z,27.67
2022-10-13T18:43:49.868Z,24.40
2022-10-13T18:45:24.176Z,25.13
2022-10-13T18:46:57.270Z,22.37
2022-10-13T18:48:31.941Z,27.27
2022-10-13T18:50:05.187Z,27.03
2022-10-13T18:51:38.105Z,24.83
2022-10-13T18:53:10.937Z,26.80
2022-10-13T18:54:45.400Z,25.43
2022-10-13T18:56:21.313Z,25.57
2022-10-13T18:57:54.038Z,26.50
2022-10-13T18:59:26.813Z,27.03
2022-10-13T19:01:01.308Z,25.50
2022-10-13T19:02:34.359Z,23.80
2022-10-13T19:04:09.773Z,20.57
2022-10-13T19:05:42.787Z,19.77
2022-10-13T19:07:15.566Z,18.73
2022-10-13T19:08:48.296Z,20.63
2022-10-13T19:10:21.216Z,21.63
2022-10-13T19:11:56.135Z,21.77
2022-10-13T19:13:29.079Z,19.23
2022-10-13T19:15:01.838Z,22.50
2022-10-13T19:16:38.116Z,18.73
2022-10-13T19:18:10.912Z,17.23
2022-10-13T19:19:45.886Z,18.73
2022-10-13T19:21:19.841Z,18.27
2022-10-13T19:22:52.748Z,17.70
2022-10-13T19:24:25.462Z,17.20
2022-10-13T19:25:59.047Z,19.40
2022-10-13T19:27:31.743Z,21.37
2022-10-13T19:29:07.640Z,18.37
2022-10-13T19:30:41.087Z,23.77
2022-10-13T19:32:14.093Z,26.03
2022-10-13T19:33:47.419Z,25.77
2022-10-13T19:35:21.795Z,25.97
2022-10-13T19:36:59.005Z,26.17
2022-10-13T19:38:31.821Z,29.57
2022-10-13T19:40:05.896Z,27.63
2022-10-13T19:41:38.904Z,29.67
2022-10-13T19:43:11.828Z,29.97
2022-10-13T19:44:44.874Z,28.37
2022-10-13T19:46:18.344Z,27.30
2022-10-13T19:47:51.311Z,25.37
2022-10-13T19:49:26.281Z,27.17
2022-10-13T19:51:02.682Z,23.47
2022-10-13T19:52:35.385Z,25.83
2022-10-13T19:54:08.517Z,24.27
2022-10-13T19:55:42.109Z,24.60
2022-10-13T19:57:14.808Z,22.30
2022-10-13T19:58:47.561Z,24.73
2022-10-13T20:00:20.342Z,21.63
2022-10-13T20:01:53.310Z,24.10
2022-10-13T20:03:26.077Z,24.13
2022-10-13T20:04:59.139Z,21.83
2022-10-13T20:06:34.094Z,22.47
2022-10-13T20:08:07.839Z,20.03
2022-10-13T20:09:40.544Z,20.80
2022-10-13T20:11:19.344Z,20.90
2022-10-13T20:12:55.061Z,21.77
2022-10-13T20:14:27.997Z,23.00
2022-10-13T20:16:05.153Z,23.07
2022-10-13T20:17:38.054Z,23.20
2022-10-13T20:19:12.720Z,25.70
2022-10-13T20:20:45.566Z,29.40
2022-10-13T20:22:20.145Z,27.83
2022-10-13T20:23:54.061Z,24.27
2022-10-13T20:25:27.118Z,26.37
2022-10-13T20:26:59.824Z,28.07
2022-10-13T20:28:33.214Z,27.30